Skip Navigation LinksHome page > Weather > Current weather Skip Navigation Links

Current Weather

Ben-Gurion Intl Apt, Tel Aviv, Israel

For information only: do not use for flight planning or navigation.
Latest weather
Observation time Sunday, March 1, 2015 10:20 PM IST
Local time Sunday, March 1, 2015 10:50 PM IST
Flight conditions Visual Meteorological Conditions
Winds
Wind direction South (170°)
Wind speed 5 mph
Visibility 6.2 mi.
Sky condition
Ceiling unlimited
Cloud layer scattered clouds 3,000 ft.
Temperature 55°F
Dewpoint 50°F
Altimeter 30.09 in.Hg
Derived measurements
Relative humidity 82%
Density altitude -97 ft.
Remarks
No significant changes expected in the next two hours.
METAR LLBG 012020Z 17004KT 9999 SCT030 13/10 Q1019 NOSIG

Settings

Location code

InnerDrive.Weather 4.0.5505.0 Release CLR 4.0.30319.34014
Copyright ©2015 Inner Drive Technology. All rights reserved. Portions Copyright ©1986-2015 David Braverman.

Find weather

Site navigation


Skip Navigation Links

Place info

Page info

PayPal - The safer, easier way to pay online!

Return home.

Copyright ©2015 Inner Drive Technology. Purveyors of fine, hand-crafted computer software. Page printed 2015-03-01T20:50:06 UTC.